createdAt,value
2022-11-12T00:01:21.331Z,5.05
2022-11-12T00:06:43.157Z,4.72
2022-11-12T00:12:06.665Z,4.40
2022-11-12T00:17:28.386Z,3.85
2022-11-12T00:22:50.241Z,4.18
2022-11-12T00:28:13.431Z,4.47
2022-11-12T00:33:38.717Z,3.88
2022-11-12T00:39:00.930Z,4.45
2022-11-12T00:44:24.464Z,5.03
2022-11-12T00:49:46.291Z,4.25
2022-11-12T00:55:08.493Z,4.32
2022-11-12T01:00:31.877Z,4.68
2022-11-12T01:05:53.704Z,4.00
2022-11-12T01:11:17.432Z,4.68
2022-11-12T01:16:40.864Z,4.95
2022-11-12T01:22:02.478Z,5.32
2022-11-12T01:27:24.607Z,4.75
2022-11-12T01:32:48.637Z,4.63
2022-11-12T01:38:10.433Z,4.10
2022-11-12T01:43:32.491Z,2.92
2022-11-12T01:48:59.477Z,4.95
2022-11-12T01:54:22.737Z,4.55
2022-11-12T01:59:47.337Z,5.32
2022-11-12T02:05:12.979Z,4.57
2022-11-12T02:10:35.574Z,5.93
2022-11-12T02:15:58.516Z,5.53
2022-11-12T02:21:22.914Z,6.05
2022-11-12T02:26:48.333Z,4.93
2022-11-12T02:32:10.349Z,4.03
2022-11-12T02:37:33.627Z,4.43
2022-11-12T02:42:55.684Z,4.95
2022-11-12T02:48:19.346Z,4.57
2022-11-12T02:53:42.662Z,5.10
2022-11-12T02:59:04.290Z,4.20
2022-11-12T03:04:26.061Z,4.82
2022-11-12T03:09:49.347Z,5.30
2022-11-12T03:15:11.195Z,4.95
2022-11-12T03:20:34.782Z,5.85
2022-11-12T03:25:57.671Z,5.40
2022-11-12T03:31:20.024Z,4.70
2022-11-12T03:36:41.965Z,3.78
2022-11-12T03:42:05.350Z,4.05
2022-11-12T03:47:27.257Z,4.28
2022-11-12T03:52:52.969Z,4.40
2022-11-12T03:58:16.118Z,4.25
2022-11-12T04:03:37.947Z,5.03
2022-11-12T04:08:59.692Z,4.53
2022-11-12T04:14:22.930Z,4.07
2022-11-12T04:20:03.128Z,3.25
2022-11-12T04:25:43.609Z,3.33
2022-11-12T04:31:06.881Z,3.80
2022-11-12T04:36:28.594Z,3.92
2022-11-12T04:42:09.230Z,3.67
2022-11-12T04:47:34.511Z,3.50
2022-11-12T04:52:56.272Z,3.70
2022-11-12T04:58:18.563Z,4.25
2022-11-12T05:03:41.549Z,3.60
2022-11-12T05:09:03.503Z,4.10
2022-11-12T05:14:25.553Z,4.68
2022-11-12T05:19:48.805Z,4.05
2022-11-12T05:25:10.492Z,3.35
2022-11-12T05:30:32.730Z,3.55
2022-11-12T05:35:57.662Z,3.58
2022-11-12T05:41:20.308Z,4.03
2022-11-12T05:46:42.818Z,4.18
2022-11-12T05:52:06.119Z,3.78
2022-11-12T05:57:27.995Z,3.33
2022-11-12T06:02:50.062Z,3.45
2022-11-12T06:08:13.537Z,3.50
2022-11-12T06:13:35.081Z,4.18
2022-11-12T06:18:56.864Z,3.83
2022-11-12T06:24:20.055Z,4.35
2022-11-12T06:29:41.752Z,4.00
2022-11-12T06:35:03.342Z,4.50
2022-11-12T06:40:26.737Z,3.10
2022-11-12T06:45:48.636Z,4.07
2022-11-12T06:51:15.468Z,4.15
2022-11-12T06:56:38.762Z,3.78
2022-11-12T07:02:00.685Z,4.25
2022-11-12T07:07:22.530Z,4.47
2022-11-12T07:12:50.445Z,4.68
2022-11-12T07:18:14.850Z,5.10
2022-11-12T07:23:37.087Z,5.95
2022-11-12T07:29:00.088Z,5.13
2022-11-12T07:34:21.644Z,5.50
2022-11-12T07:39:43.138Z,5.88
2022-11-12T07:45:07.109Z,5.28
2022-11-12T07:50:28.668Z,5.90
2022-11-12T07:55:54.850Z,6.13
2022-11-12T08:01:30.303Z,6.05
2022-11-12T08:06:52.877Z,5.95
2022-11-12T08:12:15.221Z,5.80
2022-11-12T08:17:40.176Z,4.63
2022-11-12T08:28:23.573Z,5.38
2022-11-12T08:33:46.928Z,5.55
2022-11-12T08:39:09.409Z,6.88
2022-11-12T08:44:32.599Z,7.45
2022-11-12T08:49:56.883Z,6.57
2022-11-12T08:55:18.679Z,5.93
2022-11-12T09:00:43.168Z,6.35
2022-11-12T09:06:06.796Z,5.65
2022-11-12T09:11:28.591Z,5.22
2022-11-12T09:16:50.908Z,4.57
2022-11-12T09:22:14.865Z,4.55
2022-11-12T09:27:36.403Z,3.92
2022-11-12T09:32:59.168Z,4.43
2022-11-12T09:38:23.039Z,4.45
2022-11-12T09:43:49.902Z,5.70
2022-11-12T09:49:16.258Z,4.85
2022-11-12T09:54:40.286Z,4.50
2022-11-12T10:00:03.524Z,5.37
2022-11-12T10:05:31.429Z,6.60
2022-11-12T10:11:02.156Z,5.85
2022-11-12T10:16:43.799Z,5.45
2022-11-12T10:22:18.241Z,4.55
2022-11-12T10:33:04.191Z,4.80
2022-11-12T10:38:28.702Z,5.78
2022-11-12T10:49:24.660Z,5.60
2022-11-12T10:54:50.988Z,5.57
2022-11-12T11:00:19.649Z,6.40
2022-11-12T11:05:51.596Z,5.63
2022-11-12T11:11:26.149Z,6.13
2022-11-12T11:16:54.103Z,6.72
2022-11-12T11:22:30.194Z,5.30
2022-11-12T11:28:05.807Z,5.95
2022-11-12T11:33:43.910Z,7.00
2022-11-12T11:39:17.846Z,5.22
2022-11-12T11:44:45.107Z,5.40
2022-11-12T11:50:25.669Z,5.47
2022-11-12T11:55:54.209Z,5.22
2022-11-12T12:01:23.056Z,4.35
2022-11-12T12:06:54.533Z,4.63
2022-11-12T12:12:31.121Z,4.03
2022-11-12T12:18:04.331Z,4.43
2022-11-12T12:23:33.549Z,3.83
2022-11-12T12:29:00.194Z,4.35
2022-11-12T12:34:27.357Z,4.30
2022-11-12T12:39:58.892Z,3.88
2022-11-12T12:45:36.078Z,3.10
2022-11-12T12:50:58.756Z,3.50
2022-11-12T12:56:47.234Z,2.53
2022-11-12T13:02:20.506Z,2.72
2022-11-12T13:07:45.134Z,2.88
2022-11-12T13:13:31.725Z,3.58
2022-11-12T13:19:02.143Z,2.47
2022-11-12T13:24:57.330Z,3.35
2022-11-12T13:30:51.813Z,3.92
2022-11-12T13:36:25.801Z,3.00
2022-11-12T13:42:15.116Z,3.25
2022-11-12T13:47:38.117Z,3.28
2022-11-12T13:53:01.902Z,2.70
2022-11-12T13:58:29.676Z,4.00
2022-11-12T14:03:53.310Z,2.92
2022-11-12T14:09:46.205Z,3.85
2022-11-12T14:15:23.038Z,3.40
2022-11-12T14:20:45.131Z,4.40
2022-11-12T14:26:13.228Z,3.17
2022-11-12T14:31:34.925Z,3.25
2022-11-12T14:36:57.656Z,3.13
2022-11-12T14:42:20.870Z,3.85
2022-11-12T14:47:43.042Z,4.90
2022-11-12T14:53:09.316Z,6.10
2022-11-12T14:58:33.801Z,4.43
2022-11-12T15:04:05.576Z,6.38
2022-11-12T15:09:35.716Z,5.57
2022-11-12T15:15:09.854Z,5.18
2022-11-12T15:20:31.912Z,3.90
2022-11-12T15:26:00.447Z,3.58
2022-11-12T15:31:23.568Z,3.33
2022-11-12T15:36:45.460Z,3.10
2022-11-12T15:42:16.214Z,3.20
2022-11-12T15:47:39.421Z,3.20
2022-11-12T15:53:01.270Z,3.35
2022-11-12T15:58:30.581Z,5.55
2022-11-12T16:03:53.595Z,5.47
2022-11-12T16:09:15.606Z,5.90
2022-11-12T16:14:37.452Z,4.82
2022-11-12T16:20:01.302Z,3.92
2022-11-12T16:25:25.032Z,5.35
2022-11-12T16:30:50.658Z,3.97
2022-11-12T16:36:15.869Z,3.78
2022-11-12T16:41:37.967Z,3.97
2022-11-12T16:47:02.685Z,3.28
